Time;durP1;ratioP1;P1;durP2;ratioP2;P2;SDS_P1;SDS_P2;PMS_P1;PMS_P2;Temp;Humidity;BMP_temperature;BMP_pressure;BME280_temperature;BME280_humidity;BME280_pressure;Samples;Min_cycle;Max_cycle;Signal;HPM_P1;HPM_P2
2022/07/29 00:01:33;;;;;;;;;5.75;5.75;;;;;21.79;36.41;100719.31;5067644;27;45397;-77
2022/07/29 00:03:58;;;;;;;;;7.25;4.00;;;;;21.76;36.72;100718.69;5071078;28;45685;-77
2022/07/29 00:06:23;;;;;;;;;4.25;4.25;;;;;21.78;36.74;100724.81;5078288;27;45512;-79
2022/07/29 00:09:07;;;;;;;;;5.50;5.50;;;;;21.75;37.05;100722.31;5075649;27;45511;-76
2022/07/29 00:11:32;;;;;;;;;7.00;5.75;;;;;21.73;37.04;100725.09;5077750;28;45491;-78
2022/07/29 00:14:00;;;;;;;;;5.00;5.00;;;;;21.70;37.21;100709.16;5058726;27;45315;-76
2022/07/29 00:16:25;;;;;;;;;5.00;5.00;;;;;21.55;37.10;100692.19;5057551;28;45620;-76
2022/07/29 00:18:50;;;;;;;;;4.75;4.00;;;;;21.61;37.51;100707.06;5056954;28;45781;-77
2022/07/29 00:21:16;;;;;;;;;4.25;4.25;;;;;21.43;37.55;100677.66;5055694;28;46142;-77
2022/07/29 00:23:41;;;;;;;;;6.00;6.00;;;;;21.52;37.55;100686.16;5057091;28;45472;-78
2022/07/29 00:26:07;;;;;;;;;5.00;5.00;;;;;21.53;37.64;100690.56;5071100;28;45460;-76
2022/07/29 00:28:35;;;;;;;;;5.75;5.75;;;;;21.43;37.44;100677.66;5078240;28;45623;-76
2022/07/29 00:31:00;;;;;;;;;7.00;7.00;;;;;21.42;37.49;100681.34;5064606;28;45457;-76
2022/07/29 00:33:26;;;;;;;;;5.50;4.50;;;;;21.47;37.60;100686.41;5057246;28;45528;-77
2022/07/29 00:35:51;;;;;;;;;7.50;5.00;;;;;21.45;37.83;100688.31;5057716;28;45316;-76
2022/07/29 00:38:18;;;;;;;;;9.00;6.50;;;;;21.33;37.91;100673.84;5058166;28;45408;-76
2022/07/29 00:40:45;;;;;;;;;6.50;5.25;;;;;21.37;37.97;100683.44;5055532;28;45480;-77
2022/07/29 00:43:13;;;;;;;;;8.00;6.00;;;;;21.37;37.85;100691.50;5074644;28;45405;-77
2022/07/29 00:45:39;;;;;;;;;7.00;6.50;;;;;21.30;38.04;100680.28;5076826;28;45408;-77
2022/07/29 00:48:05;;;;;;;;;4.50;3.75;;;;;21.36;38.30;100692.44;5075310;28;45664;-77
2022/07/29 00:50:31;;;;;;;;;5.25;5.25;;;;;21.34;38.14;100688.16;5072158;28;45516;-78
2022/07/29 00:52:57;;;;;;;;;6.00;5.00;;;;;21.25;38.14;100676.16;5071898;28;45514;-76
2022/07/29 00:55:24;;;;;;;;;4.00;4.00;;;;;21.23;38.53;100672.72;5056900;28;45540;-77
2022/07/29 00:57:50;;;;;;;;;8.75;6.75;;;;;21.27;38.42;100685.84;5057042;28;45591;-76
2022/07/29 01:00:22;;;;;;;;;3.75;3.75;;;;;21.22;38.44;100676.34;5071721;27;45732;-77
2022/07/29 01:02:48;;;;;;;;;5.00;5.00;;;;;21.17;38.49;100673.97;5057429;28;45433;-75
2022/07/29 01:05:15;;;;;;;;;4.25;4.25;;;;;21.16;38.70;100685.66;5061871;28;45342;-76
2022/07/29 01:07:41;;;;;;;;;7.00;5.00;;;;;21.10;39.10;100683.34;5076457;27;45347;-76
2022/07/29 01:10:09;;;;;;;;;6.75;6.75;;;;;21.05;39.07;100680.97;5074719;28;45561;-77
2022/07/29 01:12:37;;;;;;;;;7.00;6.00;;;;;20.95;39.31;100674.41;5057030;28;45459;-77
2022/07/29 01:15:06;;;;;;;;;7.50;7.50;;;;;20.94;39.47;100672.72;5056827;28;45551;-75
2022/07/29 01:18:01;;;;;;;;;6.00;6.00;;;;;21.02;39.40;100688.34;5056359;28;45464;-78
2022/07/29 01:20:31;;;;;;;;;10.50;5.25;;;;;20.96;39.19;100670.78;5057070;28;46062;-76
2022/07/29 01:23:06;;;;;;;;;5.50;5.25;;;;;21.00;39.44;100674.13;5056695;28;45384;-75
2022/07/29 01:25:35;;;;;;;;;5.25;5.25;;;;;21.03;39.22;100687.38;5055348;28;45419;-77
2022/07/29 01:28:17;;;;;;;;;6.00;6.00;;;;;21.02;39.02;100686.53;5058426;28;45540;-77
2022/07/29 01:30:45;;;;;;;;;4.75;4.75;;;;;21.00;39.62;100695.63;5069639;28;45479;-78
2022/07/29 01:33:48;;;;;;;;;6.50;5.50;;;;;20.96;39.40;100692.28;5058650;28;45302;-77
2022/07/29 01:36:06;;;;;;;;;6.00;6.00;;;;;20.97;39.39;100698.50;5057646;28;45460;-77
2022/07/29 01:38:35;;;;;;;;;7.25;4.75;;;;;20.95;39.41;100695.91;5056343;28;45579;-78
2022/07/29 01:41:11;;;;;;;;;4.00;4.00;;;;;20.95;39.77;100690.53;5064627;28;45511;-77
2022/07/29 01:43:49;;;;;;;;;6.75;5.75;;;;;20.93;39.86;100692.47;5068880;27;45464;-76
2022/07/29 01:46:21;;;;;;;;;6.00;5.00;;;;;20.77;39.60;100671.06;5058278;28;45343;-77
2022/07/29 01:48:55;;;;;;;;;4.50;3.50;;;;;20.86;39.78;100697.38;5055722;28;45397;-76
2022/07/29 01:51:27;;;;;;;;;6.00;6.00;;;;;20.86;39.56;100696.47;5055394;28;45631;-78
2022/07/29 01:54:04;;;;;;;;;4.50;4.50;;;;;20.81;39.80;100695.91;5055912;28;45316;-78
2022/07/29 01:56:33;;;;;;;;;4.50;4.50;;;;;20.74;40.02;100687.34;5070703;28;45502;-77
2022/07/29 01:59:05;;;;;;;;;7.50;6.75;;;;;20.81;39.82;100698.59;5072952;27;45532;-77
2022/07/29 02:01:33;;;;;;;;;5.75;5.75;;;;;20.75;40.19;100698.00;5062559;28;45366;-77
2022/07/29 02:04:01;;;;;;;;;6.00;6.00;;;;;20.70;39.99;100686.69;5055892;28;45525;-77
2022/07/29 02:06:30;;;;;;;;;8.00;6.75;;;;;20.75;39.86;100703.34;5056038;28;45497;-77
2022/07/29 02:09:02;;;;;;;;;4.00;4.00;;;;;20.74;40.05;100701.66;5056294;28;45378;-77
2022/07/29 02:11:29;;;;;;;;;4.00;4.00;;;;;20.75;40.16;100699.81;5055780;28;46334;-77
2022/07/29 02:13:57;;;;;;;;;5.50;5.50;;;;;20.73;40.14;100702.59;5061345;28;45503;-77
2022/07/29 02:16:26;;;;;;;;;7.25;6.50;;;;;20.73;39.86;100701.75;5076990;27;45460;-77
2022/07/29 02:18:55;;;;;;;;;6.25;5.50;;;;;20.73;39.95;100702.59;5074653;28;45439;-78
2022/07/29 02:21:24;;;;;;;;;4.50;4.50;;;;;20.74;40.02;100700.75;5065256;28;47041;-79
2022/07/29 02:23:52;;;;;;;;;6.50;5.75;;;;;20.63;40.10;100685.28;5055209;28;45390;-78
2022/07/29 02:26:20;;;;;;;;;7.75;7.00;;;;;20.63;40.27;100689.78;5055318;28;45345;-77
2022/07/29 02:28:48;;;;;;;;;7.75;6.00;;;;;20.66;40.27;100703.91;5054529;28;45667;-76
2022/07/29 02:31:16;;;;;;;;;6.00;5.00;;;;;20.56;40.46;100694.69;5055000;28;45616;-76
2022/07/29 02:33:42;;;;;;;;;5.75;5.75;;;;;20.59;40.62;100702.53;5054958;28;45583;-76
2022/07/29 02:36:10;;;;;;;;;5.00;4.00;;;;;20.50;40.69;100684.31;5053992;28;45515;-76
2022/07/29 02:38:53;;;;;;;;;6.75;5.50;;;;;20.57;40.52;100708.00;5055123;28;45528;-76
2022/07/29 02:41:29;;;;;;;;;4.75;4.00;;;;;20.59;40.57;100700.72;5056754;28;45554;-76
2022/07/29 02:43:58;;;;;;;;;6.25;6.25;;;;;20.59;40.54;100706.09;5054508;28;45571;-77
2022/07/29 02:46:32;;;;;;;;;6.25;5.75;;;;;20.53;40.31;100694.88;5068930;28;45434;-78
2022/07/29 02:49:21;;;;;;;;;4.50;4.50;;;;;20.48;40.69;100691.56;5075319;28;45533;-77
2022/07/29 02:51:54;;;;;;;;;5.00;5.00;;;;;20.54;40.72;100699.25;5056483;28;45827;-78
2022/07/29 02:54:30;;;;;;;;;5.25;5.00;;;;;20.53;40.75;100705.59;5054473;28;45386;-77
2022/07/29 02:57:00;;;;;;;;;4.50;4.50;;;;;20.44;40.88;100690.00;5053457;28;45590;-76
2022/07/29 02:59:29;;;;;;;;;5.25;4.50;;;;;20.50;40.87;100706.63;5054805;28;45523;-78
2022/07/29 03:01:57;;;;;;;;;5.00;5.00;;;;;20.50;41.05;100708.47;5071425;28;45372;-76
2022/07/29 03:04:25;;;;;;;;;5.25;5.25;;;;;20.49;40.64;100709.41;5077182;27;45276;-77
2022/07/29 03:06:53;;;;;;;;;5.00;3.75;;;;;20.47;40.96;100706.81;5077809;28;45378;-77
2022/07/29 03:09:18;;;;;;;;;7.00;4.50;;;;;20.47;40.80;100714.03;5075986;28;45399;-77
2022/07/29 03:11:45;;;;;;;;;7.50;6.00;;;;;20.42;40.95;100706.22;5058682;28;45953;-76
2022/07/29 03:14:12;;;;;;;;;6.25;6.25;;;;;20.24;40.88;100679.53;5057753;28;45299;-78
2022/07/29 03:16:37;;;;;;;;;4.50;4.50;;;;;20.45;40.76;100715.91;5076776;28;45328;-76
2022/07/29 03:19:04;;;;;;;;;6.00;6.00;;;;;20.44;41.00;100730.28;5075312;28;45318;-77
2022/07/29 03:21:31;;;;;;;;;4.00;4.00;;;;;20.34;41.42;100706.66;5061309;28;45474;-77
2022/07/29 03:23:57;;;;;;;;;8.75;6.50;;;;;20.37;41.86;100711.84;5053764;28;45504;-76
2022/07/29 03:26:22;;;;;;;;;11.25;6.00;;;;;20.27;41.51;100697.28;5055457;28;45930;-78
2022/07/29 03:28:47;;;;;;;;;5.25;5.25;;;;;20.39;41.91;100722.50;5055065;28;45448;-77
2022/07/29 03:31:14;;;;;;;;;6.00;6.00;;;;;20.36;42.23;100715.50;5063458;27;46419;-76
2022/07/29 03:33:39;;;;;;;;;7.00;5.25;;;;;20.36;42.04;100720.88;5060530;28;45700;-76
2022/07/29 03:36:06;;;;;;;;;7.00;7.00;;;;;20.34;42.40;100714.72;5064663;28;45417;-76
2022/07/29 03:38:34;;;;;;;;;6.25;5.00;;;;;20.20;42.52;100698.56;5074485;27;45726;-78
2022/07/29 03:41:05;;;;;;;;;7.25;7.25;;;;;20.27;42.32;100709.81;5073568;27;46197;-76
2022/07/29 03:43:34;;;;;;;;;7.75;7.75;;;;;20.26;42.48;100714.31;5073049;28;45368;-75
2022/07/29 03:46:00;;;;;;;;;9.00;8.00;;;;;20.25;43.06;100720.63;5054728;28;45512;-76
2022/07/29 03:48:29;;;;;;;;;6.75;6.25;;;;;20.14;43.06;100705.16;5056288;28;45366;-76
2022/07/29 03:50:55;;;;;;;;;5.50;5.50;;;;;20.21;43.40;100729.84;5053717;28;45444;-77
2022/07/29 03:53:21;;;;;;;;;7.00;7.00;;;;;20.19;43.63;100720.97;5054107;28;45373;-77
2022/07/29 03:55:50;;;;;;;;;6.75;6.75;;;;;20.08;43.53;100710.88;5053659;28;45417;-77
2022/07/29 03:58:18;;;;;;;;;12.25;9.25;;;;;20.13;43.60;100718.66;5053310;28;45365;-76
2022/07/29 04:00:44;;;;;;;;;8.00;8.00;;;;;20.14;44.02;100721.25;5053318;28;45492;-77
2022/07/29 04:03:10;;;;;;;;;11.50;10.00;;;;;20.12;44.05;100725.84;5053108;28;45372;-78
2022/07/29 04:05:35;;;;;;;;;7.25;7.00;;;;;20.13;44.05;100734.75;5054466;28;45410;-76
2022/07/29 04:08:01;;;;;;;;;7.50;7.50;;;;;20.11;44.41;100734.84;5056409;28;45328;-77
2022/07/29 04:10:27;;;;;;;;;11.00;9.50;;;;;20.03;44.60;100719.19;5052669;28;45387;-76
2022/07/29 04:12:53;;;;;;;;;8.75;8.75;;;;;20.10;44.47;100735.78;5053719;28;45319;-77
2022/07/29 04:15:19;;;;;;;;;6.50;6.50;;;;;20.09;44.50;100739.44;5052991;27;45493;-76
2022/07/29 04:17:45;;;;;;;;;10.25;8.25;;;;;20.06;44.50;100735.09;5054639;28;45985;-77
2022/07/29 04:20:13;;;;;;;;;8.25;7.00;;;;;20.08;44.49;100735.03;5053390;28;45426;-76
2022/07/29 04:22:39;;;;;;;;;8.50;8.50;;;;;19.95;44.75;100715.22;5054033;28;46154;-76
2022/07/29 04:25:04;;;;;;;;;9.25;9.25;;;;;20.06;44.88;100732.44;5053334;28;45392;-76
2022/07/29 04:27:30;;;;;;;;;9.00;7.50;;;;;20.07;44.96;100735.97;5056932;28;45629;-76
2022/07/29 04:29:56;;;;;;;;;7.75;6.00;;;;;20.11;44.73;100742.03;5056886;28;45465;-77
2022/07/29 04:32:21;;;;;;;;;9.75;9.75;;;;;20.12;44.70;100738.38;5056405;28;45471;-77
2022/07/29 04:34:46;;;;;;;;;8.50;7.00;;;;;20.12;44.58;100739.25;5056897;28;45534;-75
2022/07/29 04:37:12;;;;;;;;;10.25;7.75;;;;;20.18;44.58;100738.06;5056661;28;45660;-76
2022/07/29 04:39:37;;;;;;;;;5.50;5.50;;;;;20.22;44.49;100736.91;5055865;28;45695;-75
2022/07/29 04:42:03;;;;;;;;;9.75;9.75;;;;;20.44;43.86;100749.06;5056086;28;45370;-77
2022/07/29 04:44:28;;;;;;;;;6.00;6.00;;;;;20.73;43.38;100753.63;5068303;28;45942;-76
2022/07/29 04:46:54;;;;;;;;;6.00;6.00;;;;;21.01;43.06;100754.63;5038566;28;45810;-78
2022/07/29 04:49:19;;;;;;;;;7.50;6.50;;;;;20.98;42.24;100702.91;5056379;28;45545;-78
2022/07/29 04:51:45;;;;;;;;;11.25;7.00;;;;;21.56;41.47;100744.13;5057487;28;45421;-76
2022/07/29 04:54:10;;;;;;;;;5.00;5.00;;;;;22.05;40.65;100745.50;5055254;28;52636;-78
2022/07/29 04:56:35;;;;;;;;;7.00;7.00;;;;;22.40;40.11;100739.63;5055721;28;45573;-77
2022/07/29 04:59:01;;;;;;;;;6.75;6.75;;;;;22.91;39.63;100741.56;5055630;28;46276;-77
2022/07/29 05:01:26;;;;;;;;;8.75;8.25;;;;;23.19;38.49;100722.53;5056206;28;45432;-77
2022/07/29 05:03:52;;;;;;;;;7.50;6.50;;;;;23.76;38.23;100742.72;5057154;28;45398;-77
2022/07/29 05:06:17;;;;;;;;;8.00;7.75;;;;;24.13;36.94;100717.59;5057268;28;45407;-78
2022/07/29 05:08:42;;;;;;;;;6.75;6.00;;;;;24.70;36.79;100728.63;5055345;28;46376;-76
2022/07/29 05:11:08;;;;;;;;;10.25;9.00;;;;;25.34;35.09;100737.13;5055204;28;45382;-76
2022/07/29 05:13:34;;;;;;;;;7.50;6.25;;;;;25.69;34.43;100730.72;5069979;28;45328;-77
2022/07/29 05:16:00;;;;;;;;;9.00;7.25;;;;;26.10;34.09;100739.16;5071939;28;45342;-79
2022/07/29 05:18:26;;;;;;;;;7.25;7.25;;;;;26.71;32.68;100735.88;5076086;27;45699;-78
2022/07/29 05:20:51;;;;;;;;;7.50;7.25;;;;;27.13;31.93;100738.56;5057657;27;45457;-77
2022/07/29 05:23:17;;;;;;;;;7.50;7.00;;;;;27.66;30.70;100739.38;5057751;28;45369;-76
2022/07/29 05:25:42;;;;;;;;;8.75;7.50;;;;;27.98;30.51;100732.91;5055345;28;45370;-77
2022/07/29 05:28:07;;;;;;;;;7.00;5.25;;;;;28.44;29.30;100734.13;5055564;28;46182;-76
2022/07/29 05:30:56;;;;;;;;;9.00;6.50;;;;;28.70;29.47;100730.84;5059630;28;45570;-77
2022/07/29 05:33:21;;;;;;;;;9.00;7.50;;;;;28.95;28.72;100725.78;5076222;27;45516;-77
2022/07/29 05:35:47;;;;;;;;;7.50;6.00;;;;;28.80;28.67;100731.66;5075981;27;45511;-76
2022/07/29 05:38:12;;;;;;;;;9.00;6.75;;;;;28.33;28.90;100720.66;5075637;28;45479;-77
2022/07/29 05:40:38;;;;;;;;;8.00;8.00;;;;;27.81;29.55;100710.00;5075573;28;47821;-77
2022/07/29 05:43:03;;;;;;;;;7.00;7.00;;;;;27.68;30.32;100737.41;5061857;28;45489;-77
2022/07/29 05:45:29;;;;;;;;;12.25;8.75;;;;;27.35;30.21;100736.69;5067271;28;45543;-78
2022/07/29 05:47:55;;;;;;;;;7.75;7.00;;;;;27.01;30.36;100742.34;5074335;27;46368;-77
2022/07/29 05:50:20;;;;;;;;;7.25;7.25;;;;;26.68;31.47;100743.41;5063604;28;45484;-77
2022/07/29 05:52:45;;;;;;;;;8.50;8.50;;;;;26.32;32.10;100749.06;5056095;28;45413;-77
2022/07/29 05:55:11;;;;;;;;;7.50;6.25;;;;;26.04;32.64;100756.78;5057399;27;45905;-77
2022/07/29 05:57:36;;;;;;;;;6.75;6.75;;;;;25.82;32.77;100751.38;5056051;28;46815;-78
2022/07/29 06:00:02;;;;;;;;;10.25;10.25;;;;;25.66;33.08;100762.56;5070063;28;45670;-78
2022/07/29 06:02:29;;;;;;;;;8.75;6.50;;;;;25.42;33.45;100749.19;5061090;28;45430;-79
2022/07/29 06:04:54;;;;;;;;;5.75;5.75;;;;;25.30;33.75;100762.69;5058505;28;45580;-78
2022/07/29 06:07:20;;;;;;;;;9.25;8.25;;;;;25.16;33.77;100771.03;5076075;27;45819;-78
2022/07/29 06:09:45;;;;;;;;;11.00;9.75;;;;;24.99;34.42;100754.28;5057919;28;45457;-75
2022/07/29 06:12:11;;;;;;;;;7.25;6.25;;;;;24.95;34.48;100763.59;5072971;28;45435;-77
2022/07/29 06:14:37;;;;;;;;;7.00;7.00;;;;;24.95;34.80;100770.84;5058318;28;45397;-77
2022/07/29 06:17:03;;;;;;;;;7.00;7.00;;;;;24.98;34.49;100779.56;5057394;28;45401;-78
2022/07/29 06:19:29;;;;;;;;;7.25;7.25;;;;;24.99;34.66;100780.41;5054301;28;45435;-76
2022/07/29 06:21:54;;;;;;;;;7.00;7.00;;;;;25.05;34.13;100776.38;5062422;28;46013;-76
2022/07/29 06:24:20;;;;;;;;;10.00;10.00;;;;;25.11;35.04;100781.31;5061185;27;45507;-77
2022/07/29 06:26:45;;;;;;;;;11.00;9.00;;;;;25.17;34.82;100775.41;5071596;28;46262;-76
2022/07/29 06:29:11;;;;;;;;;6.25;6.25;;;;;25.35;34.55;100787.53;5066850;28;45452;-76
2022/07/29 06:31:37;;;;;;;;;7.00;7.00;;;;;25.40;34.40;100756.56;5055302;28;45336;-76
2022/07/29 06:34:03;;;;;;;;;8.25;8.25;;;;;25.67;34.68;100778.69;5062553;28;45429;-77
2022/07/29 06:36:28;;;;;;;;;7.75;6.25;;;;;25.88;34.59;100791.47;5075776;28;46093;-76
2022/07/29 06:38:55;;;;;;;;;10.75;8.75;;;;;26.06;33.52;100784.56;5073536;27;45390;-75
2022/07/29 06:41:20;;;;;;;;;7.50;6.75;;;;;26.41;32.80;100783.50;5075693;28;45474;-77
2022/07/29 06:43:46;;;;;;;;;10.25;8.00;;;;;26.74;32.90;100781.69;5057427;28;45470;-76
2022/07/29 06:46:14;;;;;;;;;9.75;8.00;;;;;27.18;32.18;100772.53;5067144;28;45465;-77
2022/07/29 06:48:42;;;;;;;;;11.75;9.00;;;;;27.80;31.21;100781.56;5074010;28;45527;-77
2022/07/29 06:51:08;;;;;;;;;7.00;7.00;;;;;28.59;31.40;100790.75;5065041;27;45664;-77
2022/07/29 06:53:35;;;;;;;;;10.75;10.25;;;;;29.27;28.96;100760.78;5066913;28;45567;-78
2022/07/29 06:56:02;;;;;;;;;9.00;7.75;;;;;29.99;28.87;100779.28;5054691;27;45740;-77
2022/07/29 06:58:28;;;;;;;;;11.00;7.25;;;;;30.89;27.48;100779.34;5056430;28;45626;-78
2022/07/29 07:00:54;;;;;;;;;9.00;9.00;;;;;31.59;26.96;100757.47;5068591;28;45354;-78
2022/07/29 07:03:20;;;;;;;;;6.25;6.25;;;;;32.16;25.59;100783.31;5071949;27;45584;-78
2022/07/29 07:05:45;;;;;;;;;9.50;9.00;;;;;32.88;25.87;100775.38;5076334;27;45377;-75
2022/07/29 07:08:12;;;;;;;;;7.50;7.50;;;;;33.74;25.44;100788.56;5067224;28;45345;-77
2022/07/29 07:10:40;;;;;;;;;7.00;6.75;;;;;34.38;23.20;100782.97;5069012;28;45333;-78
2022/07/29 07:13:05;;;;;;;;;9.00;7.50;;;;;35.00;22.21;100792.06;5061613;28;45687;-77
2022/07/29 07:15:31;;;;;;;;;7.75;7.75;;;;;35.63;21.28;100787.13;5070100;28;46690;-77
2022/07/29 07:17:57;;;;;;;;;8.00;8.00;;;;;36.35;20.79;100795.66;5072177;28;45522;-78
2022/07/29 07:20:24;;;;;;;;;6.75;5.50;;;;;36.91;20.25;100787.56;5059689;28;45544;-78
2022/07/29 07:22:49;;;;;;;;;6.75;6.75;;;;;37.46;19.63;100781.38;5080330;27;45467;-77
2022/07/29 07:25:17;;;;;;;;;5.75;5.25;;;;;38.10;19.43;100790.38;5058057;28;45528;-77
2022/07/29 07:27:42;;;;;;;;;9.50;9.50;;;;;38.53;19.12;100787.34;5071623;27;45367;-76
2022/07/29 07:30:08;;;;;;;;;7.00;7.00;;;;;38.99;19.66;100781.00;5074493;28;45362;-77
2022/07/29 07:32:34;;;;;;;;;5.75;5.75;;;;;39.55;18.32;100795.41;5071998;28;45494;-78
2022/07/29 07:34:59;;;;;;;;;4.75;4.75;;;;;39.79;17.59;100774.50;5069717;28;46766;-78
2022/07/29 07:37:25;;;;;;;;;6.25;6.25;;;;;40.24;18.44;100795.75;5055755;28;45370;-79
2022/07/29 07:39:55;;;;;;;;;6.75;6.25;;;;;40.54;16.99;100803.50;5075253;28;45461;-78
2022/07/29 07:42:21;;;;;;;;;8.50;6.50;;;;;40.59;18.19;100800.88;5055755;28;45516;-77
2022/07/29 07:44:48;;;;;;;;;6.00;6.00;;;;;40.74;17.15;100793.13;5068754;28;46326;-78
2022/07/29 07:47:13;;;;;;;;;8.75;6.25;;;;;40.91;17.00;100776.81;5074452;28;45322;-77
2022/07/29 07:49:39;;;;;;;;;7.00;5.25;;;;;41.20;16.45;100789.09;5073085;28;45381;-77
2022/07/29 07:52:04;;;;;;;;;7.00;7.00;;;;;41.37;16.16;100786.59;5073429;28;45382;-77
2022/07/29 07:54:30;;;;;;;;;7.75;6.75;;;;;41.53;16.53;100787.91;5072679;28;45472;-77
2022/07/29 07:56:56;;;;;;;;;7.50;6.75;;;;;41.57;16.10;100793.00;5056257;27;45456;-80
2022/07/29 07:59:21;;;;;;;;;5.75;5.75;;;;;41.98;16.43;100797.00;5055668;28;45464;-79
2022/07/29 08:01:47;;;;;;;;;9.00;9.00;;;;;42.32;15.57;100792.69;5077118;27;45430;-79
2022/07/29 08:04:13;;;;;;;;;7.00;6.50;;;;;42.61;15.46;100795.69;5058514;28;45535;-79
2022/07/29 08:06:39;;;;;;;;;5.50;5.50;;;;;42.64;15.60;100786.03;5079455;27;45611;-78
2022/07/29 08:09:05;;;;;;;;;7.50;6.25;;;;;42.18;15.85;100800.38;5078519;27;45454;-77
2022/07/29 08:11:31;;;;;;;;;7.00;5.75;;;;;41.97;16.37;100806.38;5076293;27;45524;-79
2022/07/29 08:13:57;;;;;;;;;6.00;6.00;;;;;42.02;15.92;100804.59;5074157;28;46157;-78
2022/07/29 08:16:22;;;;;;;;;3.50;3.50;;;;;42.35;16.51;100802.47;5057331;28;45476;-78
2022/07/29 08:18:47;;;;;;;;;5.00;5.00;;;;;42.46;15.17;100796.13;5057563;28;45468;-79
2022/07/29 08:21:14;;;;;;;;;6.00;6.00;;;;;42.20;15.15;100798.22;5057921;28;45477;-79
2022/07/29 08:23:45;;;;;;;;;2.75;2.75;;;;;42.03;14.97;100786.03;5059433;27;45469;-79
2022/07/29 08:26:12;;;;;;;;;0.00;0.00;;;;;42.20;15.00;100783.50;5058213;28;45653;-80
2022/07/29 08:28:38;;;;;;;;;4.00;4.00;;;;;42.55;14.34;100804.97;5069322;27;45313;-77
2022/07/29 08:31:04;;;;;;;;;3.50;3.50;;;;;42.67;14.66;100799.44;5069167;28;45699;-79
2022/07/29 08:33:30;;;;;;;;;6.50;5.00;;;;;42.96;14.61;100801.28;5068171;28;46313;-83
2022/07/29 08:35:55;;;;;;;;;3.00;3.00;;;;;42.87;14.69;100791.63;5066181;28;45351;-79
2022/07/29 08:38:22;;;;;;;;;3.00;2.00;;;;;42.77;14.44;100805.25;5072106;28;45568;-77
2022/07/29 08:40:47;;;;;;;;;6.75;4.25;;;;;42.89;15.44;100808.88;5062237;28;45650;-77
2022/07/29 08:43:13;;;;;;;;;4.50;4.50;;;;;42.73;14.13;100796.56;5072614;28;45531;-78
2022/07/29 08:45:46;;;;;;;;;4.00;4.00;;;;;42.42;14.53;100806.00;5071548;27;45442;-76
2022/07/29 08:48:17;;;;;;;;;3.75;3.75;;;;;42.25;14.22;100798.34;5064349;28;45624;-76
2022/07/29 08:50:43;;;;;;;;;4.25;4.25;;;;;42.64;14.57;100803.56;5063572;28;45407;-77
2022/07/29 08:53:14;;;;;;;;;3.00;3.00;;;;;42.85;14.56;100804.06;5062297;28;46225;-78
2022/07/29 08:55:44;;;;;;;;;3.50;3.50;;;;;42.99;14.38;100807.44;5061655;28;45650;-77
2022/07/29 08:58:10;;;;;;;;;3.00;2.25;;;;;42.69;14.47;100803.66;5059864;28;45410;-78
2022/07/29 09:00:40;;;;;;;;;3.00;3.00;;;;;42.33;14.14;100797.16;5065614;28;45756;-77
2022/07/29 09:03:07;;;;;;;;;2.50;2.50;;;;;42.16;15.06;100808.06;5066468;28;45516;-76
2022/07/29 09:05:33;;;;;;;;;4.00;4.00;;;;;42.15;14.53;100803.63;5064240;28;45377;-77
2022/07/29 09:07:59;;;;;;;;;4.25;4.25;;;;;42.03;14.69;100794.34;5062758;28;45466;-77
2022/07/29 09:10:25;;;;;;;;;5.00;3.75;;;;;42.04;15.38;100802.44;5064187;27;45401;-77
2022/07/29 09:12:52;;;;;;;;;4.25;4.25;;;;;42.16;14.51;100802.53;5063913;27;45380;-77
2022/07/29 09:15:17;;;;;;;;;5.25;3.75;;;;;41.81;14.96;100796.78;5062749;28;45529;-77
2022/07/29 09:17:47;;;;;;;;;5.00;4.25;;;;;41.46;14.51;100795.47;5061960;28;45447;-77
2022/07/29 09:20:18;;;;;;;;;4.25;4.25;;;;;41.62;15.31;100804.22;5083451;27;45434;-79
2022/07/29 09:22:48;;;;;;;;;4.00;3.00;;;;;41.63;15.10;100792.06;5069678;27;45498;-77
2022/07/29 09:25:31;;;;;;;;;2.50;2.50;;;;;41.46;15.12;100789.91;5061116;28;45329;-76
2022/07/29 09:28:08;;;;;;;;;4.00;2.00;;;;;41.48;14.59;100804.38;5064309;28;45589;-76
2022/07/29 09:30:34;;;;;;;;;1.75;1.75;;;;;41.26;15.42;100779.03;5061943;28;45549;-76
2022/07/29 09:33:02;;;;;;;;;3.00;3.00;;;;;41.44;15.14;100794.84;5054772;27;46064;-78
2022/07/29 09:35:29;;;;;;;;;4.25;3.75;;;;;41.77;14.19;100785.31;5061302;28;45429;-77
2022/07/29 09:37:55;;;;;;;;;3.25;2.00;;;;;42.15;15.37;100798.06;5070156;28;45400;-77
2022/07/29 09:40:23;;;;;;;;;5.00;4.00;;;;;42.22;13.77;100792.41;5074085;27;45474;-77
2022/07/29 09:42:50;;;;;;;;;4.25;4.25;;;;;42.22;14.22;100796.03;5056407;28;46353;-76
2022/07/29 09:45:34;;;;;;;;;3.00;3.00;;;;;42.15;14.13;100795.31;5069678;28;45488;-76
2022/07/29 09:48:19;;;;;;;;;2.00;2.00;;;;;42.17;15.10;100793.13;5058568;28;45772;-76
2022/07/29 09:50:49;;;;;;;;;3.50;2.25;;;;;42.17;14.83;100795.91;5067591;28;45368;-77
2022/07/29 09:53:37;;;;;;;;;2.75;2.75;;;;;42.23;14.38;100800.50;5065113;28;47284;-77
2022/07/29 09:56:06;;;;;;;;;3.00;3.00;;;;;42.34;15.26;100795.25;5072274;28;45527;-77
2022/07/29 09:58:37;;;;;;;;;2.50;2.50;;;;;42.21;15.04;100797.13;5064908;28;45456;-77
2022/07/29 10:01:03;;;;;;;;;6.00;3.75;;;;;42.04;15.15;100798.81;5063404;27;45436;-77
2022/07/29 10:03:29;;;;;;;;;4.00;4.00;;;;;41.68;15.08;100798.63;5060436;28;46033;-76
2022/07/29 10:06:09;;;;;;;;;2.00;2.00;;;;;41.38;15.26;100796.63;5070284;28;46010;-77
2022/07/29 10:08:34;;;;;;;;;3.00;3.00;;;;;41.61;15.70;100797.00;5064276;28;45398;-76
2022/07/29 10:11:17;;;;;;;;;2.50;2.50;;;;;41.42;15.88;100796.16;5069229;27;45632;-78
2022/07/29 10:13:44;;;;;;;;;3.75;3.50;;;;;41.15;15.13;100804.69;5057973;28;46416;-76
2022/07/29 10:16:11;;;;;;;;;4.00;4.00;;;;;40.98;15.48;100787.81;5064093;28;45387;-77
2022/07/29 10:18:41;;;;;;;;;3.00;3.00;;;;;40.95;15.65;100802.13;5071611;28;45371;-77
2022/07/29 10:21:07;;;;;;;;;3.00;3.00;;;;;41.06;16.17;100792.22;5071066;28;45430;-78
2022/07/29 10:23:34;;;;;;;;;4.00;3.00;;;;;41.02;15.78;100784.38;5065646;28;45548;-76
2022/07/29 10:26:00;;;;;;;;;2.75;2.75;;;;;41.27;15.22;100799.25;5060967;28;45473;-76
2022/07/29 10:28:25;;;;;;;;;1.50;1.50;;;;;41.11;15.07;100809.03;5059331;27;45496;-76
2022/07/29 10:30:52;;;;;;;;;3.50;2.00;;;;;40.93;15.72;100791.28;5062274;28;45532;-76
2022/07/29 10:33:31;;;;;;;;;3.00;3.00;;;;;41.03;14.92;100808.22;5064710;28;47188;-75
2022/07/29 10:36:24;;;;;;;;;2.75;2.75;;;;;41.05;15.49;100802.47;5073730;27;45411;-77
2022/07/29 10:39:07;;;;;;;;;2.50;2.00;;;;;40.94;15.50;100803.22;5055869;28;45507;-77
2022/07/29 10:42:01;;;;;;;;;3.50;2.75;;;;;40.58;15.97;100805.59;5056455;28;45656;-76
2022/07/29 10:44:27;;;;;;;;;1.00;1.00;;;;;40.48;15.98;100808.88;5060864;28;45623;-77
2022/07/29 10:46:54;;;;;;;;;4.75;4.75;;;;;40.58;16.27;100811.13;5066896;28;45411;-76
2022/07/29 10:49:26;;;;;;;;;3.00;3.00;;;;;40.59;15.88;100811.97;5055904;28;45431;-76
2022/07/29 10:52:09;;;;;;;;;2.25;2.25;;;;;40.83;16.61;100807.50;5063086;28;45382;-77
2022/07/29 10:54:36;;;;;;;;;3.00;3.00;;;;;40.94;16.41;100815.13;5061536;27;45577;-77
2022/07/29 10:57:26;;;;;;;;;4.50;4.00;;;;;40.91;15.42;100800.88;5060218;27;45459;-76
2022/07/29 11:00:14;;;;;;;;;3.75;3.75;;;;;40.83;15.37;100813.91;5054638;28;45358;-77
2022/07/29 11:02:43;;;;;;;;;4.00;4.00;;;;;40.78;15.00;100810.97;5062771;28;45616;-76
2022/07/29 11:05:10;;;;;;;;;4.00;4.00;;;;;40.78;15.40;100818.44;5067661;28;45306;-77
2022/07/29 11:07:37;;;;;;;;;3.00;3.00;;;;;40.83;16.31;100807.50;5070001;28;45547;-78
2022/07/29 11:10:15;;;;;;;;;3.00;3.00;;;;;40.99;16.02;100811.69;5062221;28;45465;-77
2022/07/29 11:12:40;;;;;;;;;5.00;5.00;;;;;41.13;16.19;100802.16;5062573;28;45485;-77
2022/07/29 11:15:18;;;;;;;;;3.50;3.50;;;;;41.07;15.41;100792.00;5058632;28;46523;-78
2022/07/29 11:17:53;;;;;;;;;4.00;3.50;;;;;41.20;15.14;100802.94;5068639;28;45394;-78
2022/07/29 11:20:38;;;;;;;;;2.25;2.25;;;;;41.11;15.87;100798.78;5060438;28;45456;-78
2022/07/29 11:23:24;;;;;;;;;5.50;5.50;;;;;40.92;15.72;100803.44;5058639;27;45476;-77
2022/07/29 11:26:25;;;;;;;;;3.00;3.00;;;;;40.87;16.24;100803.25;5071442;28;45453;-77
2022/07/29 11:28:53;;;;;;;;;4.00;4.00;;;;;40.56;16.25;100812.41;5063609;28;45524;-78
2022/07/29 11:31:39;;;;;;;;;4.00;3.50;;;;;40.50;15.83;100814.16;5058065;27;45450;-77